createdAt,value
2019-04-26T00:01:23.575Z,13.20
2019-04-26T00:03:53.686Z,13.30
2019-04-26T00:06:24.096Z,13.30
2019-04-26T00:09:07.809Z,13.20
2019-04-26T00:12:14.404Z,13.20
2019-04-26T00:14:55.755Z,13.30
2019-04-26T00:17:35.371Z,13.20
2019-04-26T00:20:06.043Z,13.10
2019-04-26T00:22:36.439Z,13.00
2019-04-26T00:25:06.752Z,13.00
2019-04-26T00:27:38.113Z,12.90
2019-04-26T00:30:08.147Z,13.00
2019-04-26T00:32:38.459Z,13.00
2019-04-26T00:35:09.498Z,12.90
2019-04-26T00:37:39.542Z,12.90
2019-04-26T00:40:09.932Z,12.90
2019-04-26T00:42:40.001Z,12.80
2019-04-26T00:45:10.037Z,12.80
2019-04-26T00:47:41.373Z,12.80
2019-04-26T00:50:11.354Z,12.90
2019-04-26T00:52:43.028Z,12.90
2019-04-26T00:55:14.165Z,12.90
2019-04-26T00:57:45.471Z,13.00
2019-04-26T01:00:18.119Z,13.10
2019-04-26T01:02:51.698Z,13.00
2019-04-26T01:05:21.662Z,12.80
2019-04-26T01:07:53.801Z,13.00
2019-04-26T01:10:23.861Z,13.20
2019-04-26T01:12:54.886Z,13.30
2019-04-26T01:15:24.857Z,13.10
2019-04-26T01:17:54.891Z,12.70
2019-04-26T01:20:28.176Z,12.70
2019-04-26T01:23:01.105Z,12.50
2019-04-26T01:26:02.065Z,12.30
2019-04-26T01:28:41.949Z,12.10
2019-04-26T01:31:12.515Z,12.20
2019-04-26T01:33:44.167Z,12.30
2019-04-26T01:36:15.150Z,12.10
2019-04-26T01:38:48.261Z,12.10
2019-04-26T01:41:28.194Z,11.80
2019-04-26T01:44:07.921Z,11.80
2019-04-26T01:46:45.037Z,11.80
2019-04-26T01:49:17.426Z,11.80
2019-04-26T01:51:53.050Z,11.80
2019-04-26T01:54:26.254Z,11.80
2019-04-26T01:56:59.973Z,11.70
2019-04-26T01:59:30.034Z,11.80
2019-04-26T02:02:18.096Z,11.90
2019-04-26T02:04:50.239Z,12.00
2019-04-26T02:07:38.822Z,11.70
2019-04-26T02:10:10.557Z,11.80
2019-04-26T02:12:44.484Z,11.60
2019-04-26T02:15:17.669Z,11.50
2019-04-26T02:17:50.066Z,11.50
2019-04-26T02:20:45.378Z,11.40
2019-04-26T02:23:21.748Z,11.40
2019-04-26T02:25:51.752Z,11.30
2019-04-26T02:28:22.677Z,11.30
2019-04-26T02:30:52.755Z,11.30
2019-04-26T02:33:23.278Z,11.20
2019-04-26T02:35:53.223Z,11.50
2019-04-26T02:38:23.201Z,11.70
2019-04-26T02:40:53.557Z,11.50
2019-04-26T02:43:26.439Z,11.00
2019-04-26T02:46:13.428Z,11.10
2019-04-26T02:49:18.329Z,11.10
2019-04-26T02:52:03.651Z,11.00
2019-04-26T02:54:46.522Z,11.00
2019-04-26T02:57:23.541Z,10.90
2019-04-26T03:00:00.198Z,10.90
2019-04-26T03:02:32.283Z,10.90
2019-04-26T03:05:05.649Z,10.80
2019-04-26T03:07:54.978Z,10.70
2019-04-26T03:10:38.642Z,10.70
2019-04-26T03:13:14.238Z,10.80
2019-04-26T03:15:59.307Z,10.70
2019-04-26T03:18:49.770Z,10.70
2019-04-26T03:21:34.122Z,10.70
2019-04-26T03:24:12.659Z,10.60
2019-04-26T03:26:49.131Z,10.60
2019-04-26T03:29:25.626Z,10.60
2019-04-26T03:32:17.431Z,10.50
2019-04-26T03:34:58.476Z,10.60
2019-04-26T03:38:18.601Z,10.60
2019-04-26T03:41:02.106Z,10.70
2019-04-26T03:43:57.093Z,10.70
2019-04-26T03:46:45.350Z,10.70
2019-04-26T03:49:30.755Z,10.80
2019-04-26T03:52:39.688Z,10.80
2019-04-26T03:55:48.344Z,10.70
2019-04-26T03:58:25.831Z,10.70
2019-04-26T04:01:01.311Z,10.60
2019-04-26T04:03:52.657Z,10.60
2019-04-26T04:06:28.735Z,10.60
2019-04-26T04:09:05.241Z,10.70
2019-04-26T04:11:43.124Z,11.00
2019-04-26T04:14:22.432Z,11.00
2019-04-26T04:17:22.019Z,11.10
2019-04-26T04:20:52.463Z,10.90
2019-04-26T04:24:02.687Z,10.80
2019-04-26T04:27:02.049Z,10.80
2019-04-26T04:29:58.399Z,10.70
2019-04-26T04:32:58.515Z,10.70
2019-04-26T04:35:31.749Z,10.80
2019-04-26T04:38:10.095Z,10.90
2019-04-26T04:41:26.441Z,11.10
2019-04-26T04:44:07.670Z,11.10
2019-04-26T04:47:24.588Z,11.30
2019-04-26T04:50:04.798Z,11.40
2019-04-26T04:53:15.690Z,11.30
2019-04-26T04:56:29.170Z,11.30
2019-04-26T04:59:02.687Z,11.40
2019-04-26T05:01:57.291Z,11.40
2019-04-26T05:04:42.578Z,11.30
2019-04-26T05:07:26.701Z,11.40
2019-04-26T05:10:14.696Z,11.50
2019-04-26T05:13:07.947Z,11.40
2019-04-26T05:16:20.536Z,11.60
2019-04-26T05:19:36.692Z,11.60
2019-04-26T05:22:35.193Z,11.60
2019-04-26T05:25:56.871Z,11.60
2019-04-26T05:28:39.359Z,11.70
2019-04-26T05:31:32.088Z,11.70
2019-04-26T05:34:47.433Z,11.70
2019-04-26T05:37:41.069Z,11.80
2019-04-26T05:40:43.071Z,11.90
2019-04-26T05:43:49.176Z,11.90
2019-04-26T05:47:02.264Z,11.70
2019-04-26T05:50:33.651Z,11.80
2019-04-26T05:53:52.875Z,11.80
2019-04-26T05:56:40.629Z,11.60
2019-04-26T05:59:55.011Z,11.70
2019-04-26T06:03:14.031Z,11.70
2019-04-26T06:06:22.877Z,11.60
2019-04-26T06:09:30.306Z,11.70
2019-04-26T06:12:12.502Z,11.80
2019-04-26T06:15:04.095Z,11.70
2019-04-26T06:18:03.174Z,11.80
2019-04-26T06:20:51.174Z,11.70
2019-04-26T06:23:54.352Z,11.80
2019-04-26T06:26:54.298Z,11.80
2019-04-26T06:29:41.500Z,11.80
2019-04-26T06:32:30.236Z,11.90
2019-04-26T06:35:09.137Z,12.00
2019-04-26T06:37:54.010Z,11.90
2019-04-26T06:40:49.588Z,12.00
2019-04-26T06:43:29.996Z,11.90
2019-04-26T06:46:36.588Z,11.90
2019-04-26T06:49:55.214Z,12.00
2019-04-26T06:52:27.938Z,11.90
2019-04-26T06:55:39.770Z,11.90
2019-04-26T06:58:37.298Z,11.80
2019-04-26T07:01:25.384Z,11.80
2019-04-26T07:04:59.156Z,12.00
2019-04-26T07:08:07.118Z,12.00
2019-04-26T07:11:23.906Z,12.00
2019-04-26T07:14:22.057Z,12.00
2019-04-26T07:17:06.506Z,12.00
2019-04-26T07:20:06.067Z,11.90
2019-04-26T07:23:08.918Z,12.00
2019-04-26T07:26:16.735Z,12.10
2019-04-26T07:29:31.421Z,12.10
2019-04-26T07:32:14.533Z,12.10
2019-04-26T07:35:04.747Z,12.20
2019-04-26T07:38:12.574Z,11.90
2019-04-26T07:41:23.936Z,11.90
2019-04-26T07:44:34.883Z,11.80
2019-04-26T07:48:15.248Z,11.90
2019-04-26T07:51:46.588Z,12.00
2019-04-26T07:55:04.488Z,12.20
2019-04-26T07:58:13.918Z,12.10
2019-04-26T08:00:53.133Z,12.20
2019-04-26T08:03:36.247Z,12.30
2019-04-26T08:06:17.040Z,12.40
2019-04-26T08:08:58.079Z,12.40
2019-04-26T08:11:37.440Z,12.50
2019-04-26T08:14:15.665Z,12.50
2019-04-26T08:17:30.239Z,12.40
2019-04-26T08:20:28.144Z,12.30
2019-04-26T08:23:02.775Z,12.20
2019-04-26T08:25:36.471Z,12.10
2019-04-26T08:28:09.896Z,11.90
2019-04-26T08:30:46.242Z,11.80
2019-04-26T08:33:21.095Z,11.50
2019-04-26T08:35:53.497Z,11.50
2019-04-26T08:38:24.804Z,11.40
2019-04-26T08:40:55.761Z,11.20
2019-04-26T08:43:50.248Z,11.10
2019-04-26T08:46:38.026Z,11.00
2019-04-26T08:49:13.886Z,11.00
2019-04-26T08:51:45.167Z,11.00
2019-04-26T08:54:21.826Z,10.90
2019-04-26T08:57:02.493Z,11.00
2019-04-26T08:59:37.510Z,11.10
2019-04-26T09:02:32.556Z,11.20
2019-04-26T09:05:22.678Z,11.10
2019-04-26T09:07:57.617Z,11.10
2019-04-26T09:10:28.773Z,11.10
2019-04-26T09:13:01.554Z,11.00
2019-04-26T09:16:04.139Z,11.10
2019-04-26T09:18:42.904Z,11.00
2019-04-26T09:21:06.509Z,11.10
2019-04-26T09:23:54.403Z,11.20
2019-04-26T09:26:32.380Z,11.10
2019-04-26T09:29:30.303Z,11.10
2019-04-26T09:32:09.207Z,11.10
2019-04-26T09:34:41.228Z,11.10
2019-04-26T09:37:11.236Z,11.20
2019-04-26T09:39:42.100Z,11.10
2019-04-26T09:42:39.710Z,11.20
2019-04-26T09:45:24.317Z,11.10
2019-04-26T09:47:59.497Z,11.20
2019-04-26T09:50:37.610Z,11.00
2019-04-26T09:53:07.524Z,11.00
2019-04-26T09:55:37.517Z,10.90
2019-04-26T09:58:08.734Z,10.90
2019-04-26T10:00:39.445Z,10.90
2019-04-26T10:03:10.943Z,10.80
2019-04-26T10:05:42.021Z,10.80
2019-04-26T10:08:12.796Z,10.80
2019-04-26T10:10:43.689Z,10.60
2019-04-26T10:13:44.553Z,10.60
2019-04-26T10:16:33.611Z,10.50
2019-04-26T10:19:09.626Z,10.50
2019-04-26T10:21:39.674Z,10.50
2019-04-26T10:24:09.629Z,10.50
2019-04-26T10:26:39.866Z,10.50
2019-04-26T10:29:10.148Z,10.60
2019-04-26T10:31:40.334Z,10.70
2019-04-26T10:34:11.866Z,10.90
2019-04-26T10:36:41.915Z,10.90
2019-04-26T10:39:12.854Z,11.10
2019-04-26T10:41:43.290Z,11.20
2019-04-26T10:44:13.328Z,11.20
2019-04-26T10:46:54.998Z,11.20
2019-04-26T10:49:43.273Z,11.20
2019-04-26T10:52:21.097Z,11.30
2019-04-26T10:54:59.740Z,11.20
2019-04-26T10:57:35.410Z,11.30
2019-04-26T11:00:08.232Z,11.20
2019-04-26T11:02:38.641Z,11.20
2019-04-26T11:05:11.615Z,11.10
2019-04-26T11:07:41.094Z,11.10
2019-04-26T11:10:11.354Z,11.10
2019-04-26T11:12:43.469Z,11.00
2019-04-26T11:15:14.452Z,11.00
2019-04-26T11:17:46.015Z,11.00
2019-04-26T11:20:16.129Z,11.10
2019-04-26T11:22:46.330Z,11.20
2019-04-26T11:25:16.366Z,11.10
2019-04-26T11:27:48.543Z,11.10
2019-04-26T11:30:20.806Z,11.10
2019-04-26T11:32:50.051Z,11.20
2019-04-26T11:35:20.207Z,11.30
2019-04-26T11:37:50.740Z,11.40
2019-04-26T11:40:21.954Z,11.40
2019-04-26T11:42:51.915Z,11.40
2019-04-26T11:45:22.204Z,11.60
2019-04-26T11:47:56.352Z,11.70
2019-04-26T11:50:23.784Z,11.70
2019-04-26T11:52:54.261Z,11.70
2019-04-26T11:55:25.298Z,11.80
2019-04-26T11:57:55.940Z,11.90
2019-04-26T12:00:34.104Z,12.00
2019-04-26T12:03:04.468Z,12.00
2019-04-26T12:05:47.410Z,12.20
2019-04-26T12:08:21.854Z,12.40
2019-04-26T12:10:51.873Z,12.30
2019-04-26T12:13:25.031Z,12.40
2019-04-26T12:15:54.019Z,12.40
2019-04-26T12:18:24.093Z,12.30
2019-04-26T12:20:57.177Z,12.20
2019-04-26T12:23:26.720Z,12.20
2019-04-26T12:25:56.606Z,12.00
2019-04-26T12:28:26.959Z,12.00
2019-04-26T12:30:58.448Z,12.00
2019-04-26T12:33:28.789Z,12.00
2019-04-26T12:35:58.670Z,12.00
2019-04-26T12:38:30.078Z,12.00
2019-04-26T12:41:00.505Z,11.90
2019-04-26T12:43:30.369Z,12.00
2019-04-26T12:46:22.754Z,12.10
2019-04-26T12:48:51.410Z,12.10
2019-04-26T12:51:21.490Z,12.10
2019-04-26T12:53:51.684Z,12.10
2019-04-26T12:56:21.720Z,12.10
2019-04-26T12:58:51.623Z,12.20
2019-04-26T13:01:21.568Z,12.10
2019-04-26T13:04:04.848Z,12.10
2019-04-26T13:06:37.692Z,12.00
2019-04-26T13:09:14.895Z,11.80
2019-04-26T13:12:19.161Z,11.70
2019-04-26T13:15:03.861Z,11.60
2019-04-26T13:17:46.216Z,11.50
2019-04-26T13:20:16.263Z,11.40
2019-04-26T13:22:49.997Z,11.40
2019-04-26T13:25:26.318Z,11.30
2019-04-26T13:27:49.704Z,11.40
2019-04-26T13:30:32.274Z,11.30
2019-04-26T13:32:53.339Z,11.30
2019-04-26T13:35:23.206Z,11.20
2019-04-26T13:37:53.223Z,11.20
2019-04-26T13:40:25.674Z,11.20
2019-04-26T13:42:55.138Z,11.20
2019-04-26T13:45:33.473Z,11.20
2019-04-26T13:48:21.566Z,11.20
2019-04-26T13:50:57.317Z,11.20
2019-04-26T13:53:28.322Z,11.10
2019-04-26T13:56:01.479Z,11.10
2019-04-26T13:58:29.939Z,11.20
2019-04-26T14:01:00.046Z,11.20
2019-04-26T14:03:31.559Z,11.20
2019-04-26T14:06:01.666Z,11.20
2019-04-26T14:08:31.643Z,11.30
2019-04-26T14:11:01.613Z,11.20
2019-04-26T14:13:31.818Z,11.20
2019-04-26T14:16:02.120Z,11.20
2019-04-26T14:18:34.535Z,11.20
2019-04-26T14:21:04.067Z,11.20
2019-04-26T14:23:45.388Z,11.10
2019-04-26T14:26:15.961Z,11.20
2019-04-26T14:28:45.846Z,11.20
2019-04-26T14:31:18.138Z,11.10
2019-04-26T14:33:48.292Z,11.20
2019-04-26T14:36:18.649Z,11.20
2019-04-26T14:38:49.076Z,11.30
2019-04-26T14:41:22.570Z,11.30
2019-04-26T14:43:52.673Z,11.30
2019-04-26T14:46:23.037Z,11.30
2019-04-26T14:49:01.427Z,11.30
2019-04-26T14:51:24.603Z,11.30
2019-04-26T14:53:54.594Z,11.40
2019-04-26T14:56:29.144Z,11.40
2019-04-26T14:58:56.568Z,11.40
2019-04-26T15:01:40.181Z,11.30
2019-04-26T15:04:29.081Z,11.30
2019-04-26T15:06:59.720Z,11.40
2019-04-26T15:09:33.262Z,11.40
2019-04-26T15:12:03.468Z,11.40
2019-04-26T15:14:33.325Z,11.40
2019-04-26T15:17:03.487Z,11.50
2019-04-26T15:19:35.126Z,11.50
2019-04-26T15:22:10.282Z,11.60
2019-04-26T15:24:38.648Z,11.70
2019-04-26T15:27:08.408Z,11.70
2019-04-26T15:29:38.374Z,11.80
2019-04-26T15:32:08.401Z,11.80
2019-04-26T15:34:38.631Z,11.90
2019-04-26T15:37:08.443Z,11.90
2019-04-26T15:39:56.830Z,11.90
2019-04-26T15:42:43.154Z,11.90
2019-04-26T15:45:26.326Z,11.90
2019-04-26T15:48:08.222Z,11.90
2019-04-26T15:50:48.448Z,11.90
2019-04-26T15:53:14.689Z,11.80
2019-04-26T15:55:44.816Z,11.80
2019-04-26T15:58:14.770Z,11.80
2019-04-26T16:00:45.052Z,11.80
2019-04-26T16:03:15.989Z,11.70
2019-04-26T16:05:46.981Z,11.70
2019-04-26T16:08:17.071Z,11.60
2019-04-26T16:10:47.495Z,11.60
2019-04-26T16:13:21.093Z,11.60
2019-04-26T16:15:49.738Z,11.60
2019-04-26T16:18:19.800Z,11.50
2019-04-26T16:20:49.937Z,11.60
2019-04-26T16:23:19.981Z,11.60
2019-04-26T16:25:49.922Z,11.60
2019-04-26T16:28:49.125Z,11.70
2019-04-26T16:31:37.399Z,11.70
2019-04-26T16:34:11.659Z,11.70
2019-04-26T16:36:50.575Z,11.70
2019-04-26T16:39:20.453Z,11.80
2019-04-26T16:41:50.342Z,11.80
2019-04-26T16:44:28.218Z,11.80
2019-04-26T16:47:01.066Z,11.80
2019-04-26T16:49:23.938Z,11.80
2019-04-26T16:52:02.133Z,11.90
2019-04-26T16:54:26.834Z,11.90
2019-04-26T16:56:58.993Z,11.90
2019-04-26T16:59:29.162Z,11.90
2019-04-26T17:02:02.362Z,12.00
2019-04-26T17:04:32.432Z,11.90
2019-04-26T17:07:04.960Z,11.80
2019-04-26T17:09:54.758Z,11.80
2019-04-26T17:12:06.128Z,11.70
2019-04-26T17:14:40.466Z,11.80
2019-04-26T17:17:10.780Z,11.70
2019-04-26T17:19:40.367Z,11.70
2019-04-26T17:22:23.330Z,11.70
2019-04-26T17:25:12.707Z,11.80
2019-04-26T17:27:45.947Z,11.80
2019-04-26T17:30:17.469Z,11.70
2019-04-26T17:32:51.659Z,11.70
2019-04-26T17:35:19.628Z,11.70
2019-04-26T17:37:50.216Z,11.70
2019-04-26T17:40:25.142Z,11.80
2019-04-26T17:42:52.283Z,11.80
2019-04-26T17:45:22.254Z,11.90
2019-04-26T17:47:52.997Z,11.90
2019-04-26T17:50:24.432Z,11.80
2019-04-26T17:52:54.730Z,11.90
2019-04-26T17:55:25.175Z,11.90
2019-04-26T17:58:09.620Z,11.90
2019-04-26T18:00:28.887Z,11.80
2019-04-26T18:02:58.528Z,11.80
2019-04-26T18:05:44.995Z,11.80
2019-04-26T18:08:30.580Z,11.80
2019-04-26T18:10:35.532Z,11.80
2019-04-26T18:13:04.366Z,11.80
2019-04-26T18:15:35.587Z,11.90
2019-04-26T18:18:29.266Z,11.80
2019-04-26T18:21:20.374Z,11.70
2019-04-26T18:23:54.626Z,11.70
2019-04-26T18:26:22.428Z,11.60
2019-04-26T18:28:55.094Z,11.60
2019-04-26T18:31:28.934Z,11.60
2019-04-26T18:34:00.555Z,11.60
2019-04-26T18:36:32.053Z,11.70
2019-04-26T18:38:59.871Z,11.60
2019-04-26T18:41:30.033Z,11.60
2019-04-26T18:44:00.873Z,11.50
2019-04-26T18:46:53.569Z,11.40
2019-04-26T18:49:26.997Z,11.40
2019-04-26T18:51:56.012Z,11.40
2019-04-26T18:54:38.098Z,11.30
2019-04-26T18:57:09.486Z,11.30
2019-04-26T18:59:39.702Z,11.20
2019-04-26T19:02:11.402Z,11.10
2019-04-26T19:04:48.056Z,11.10
2019-04-26T19:07:15.990Z,11.10
2019-04-26T19:09:58.978Z,11.30
2019-04-26T19:12:22.308Z,11.20
2019-04-26T19:15:12.446Z,11.20
2019-04-26T19:18:04.345Z,11.20
2019-04-26T19:20:40.747Z,11.20
2019-04-26T19:23:12.168Z,11.10
2019-04-26T19:25:42.388Z,11.10
2019-04-26T19:28:12.512Z,11.20
2019-04-26T19:30:49.063Z,11.20
2019-04-26T19:33:16.872Z,11.10
2019-04-26T19:35:47.544Z,11.10
2019-04-26T19:38:18.790Z,11.10
2019-04-26T19:40:48.828Z,10.90
2019-04-26T19:43:30.418Z,10.90
2019-04-26T19:46:12.898Z,10.90
2019-04-26T19:48:56.552Z,10.90
2019-04-26T19:51:45.782Z,11.10
2019-04-26T19:54:36.849Z,11.00
2019-04-26T19:57:06.205Z,11.00
2019-04-26T19:59:36.212Z,11.10
2019-04-26T20:02:06.374Z,11.00
2019-04-26T20:04:36.431Z,11.00
2019-04-26T20:07:06.691Z,11.10
2019-04-26T20:09:36.773Z,11.10
2019-04-26T20:12:06.990Z,11.10
2019-04-26T20:14:47.199Z,11.00
2019-04-26T20:17:12.692Z,11.00
2019-04-26T20:19:42.318Z,11.00
2019-04-26T20:22:12.620Z,11.00
2019-04-26T20:24:43.007Z,11.00
2019-04-26T20:27:15.581Z,11.00
2019-04-26T20:29:47.540Z,11.00
2019-04-26T20:32:26.644Z,10.90
2019-04-26T20:35:06.969Z,11.00
2019-04-26T20:37:37.007Z,10.90
2019-04-26T20:40:18.664Z,10.90
2019-04-26T20:42:39.119Z,10.90
2019-04-26T20:45:11.460Z,10.90
2019-04-26T20:47:41.637Z,10.80
2019-04-26T20:50:12.002Z,10.80
2019-04-26T20:52:45.418Z,10.70
2019-04-26T20:55:15.134Z,10.70
2019-04-26T20:57:45.374Z,10.70
2019-04-26T21:00:15.496Z,10.70
2019-04-26T21:02:45.718Z,10.70
2019-04-26T21:05:15.860Z,10.80
2019-04-26T21:07:49.821Z,10.80
2019-04-26T21:10:21.921Z,10.70
2019-04-26T21:12:52.068Z,10.60
2019-04-26T21:15:24.019Z,10.60
2019-04-26T21:17:56.731Z,10.60
2019-04-26T21:20:27.648Z,10.60
2019-04-26T21:22:57.723Z,10.50
2019-04-26T21:25:38.030Z,10.60
2019-04-26T21:28:16.581Z,10.50
2019-04-26T21:30:55.234Z,10.50
2019-04-26T21:33:44.123Z,10.50
2019-04-26T21:36:34.703Z,10.50
2019-04-26T21:39:33.830Z,10.40
2019-04-26T21:42:04.212Z,10.40
2019-04-26T21:44:35.490Z,10.40
2019-04-26T21:47:05.746Z,10.40
2019-04-26T21:49:38.067Z,10.30
2019-04-26T21:52:07.610Z,10.30
2019-04-26T21:54:37.586Z,10.30
2019-04-26T21:57:07.492Z,10.30
2019-04-26T21:59:40.855Z,10.20
2019-04-26T22:02:09.245Z,10.10
2019-04-26T22:04:39.226Z,10.10
2019-04-26T22:07:09.435Z,10.00
2019-04-26T22:09:50.105Z,10.00
2019-04-26T22:12:20.678Z,10.00
2019-04-26T22:15:00.688Z,10.10
2019-04-26T22:17:36.287Z,10.10
2019-04-26T22:20:27.837Z,10.00
2019-04-26T22:23:16.527Z,10.10
2019-04-26T22:25:49.549Z,10.00
2019-04-26T22:28:19.450Z,10.00
2019-04-26T22:30:49.552Z,10.00
2019-04-26T22:33:20.213Z,10.00
2019-04-26T22:35:50.453Z,10.10
2019-04-26T22:38:26.579Z,10.00
2019-04-26T22:40:56.144Z,10.00
2019-04-26T22:43:54.016Z,10.00
2019-04-26T22:46:47.048Z,9.90
2019-04-26T22:49:13.212Z,10.00
2019-04-26T22:51:43.662Z,9.90
2019-04-26T22:54:14.007Z,9.90
2019-04-26T22:56:46.007Z,10.00
2019-04-26T22:59:15.475Z,10.00
2019-04-26T23:01:48.709Z,10.00
2019-04-26T23:04:23.727Z,10.00
2019-04-26T23:06:48.971Z,10.00
2019-04-26T23:09:20.807Z,9.90
2019-04-26T23:11:57.439Z,9.90
2019-04-26T23:14:55.169Z,9.80
2019-04-26T23:17:44.003Z,9.80
2019-04-26T23:20:18.686Z,9.80
2019-04-26T23:22:48.577Z,9.80
2019-04-26T23:25:18.510Z,9.80
2019-04-26T23:27:50.470Z,9.70
2019-04-26T23:30:20.373Z,9.70
2019-04-26T23:32:52.192Z,9.60
2019-04-26T23:35:22.049Z,9.60
2019-04-26T23:37:52.015Z,9.50
2019-04-26T23:40:25.772Z,9.50
2019-04-26T23:42:54.474Z,9.50
2019-04-26T23:45:24.547Z,9.50
2019-04-26T23:47:54.831Z,9.40
2019-04-26T23:50:25.543Z,9.40
2019-04-26T23:52:56.537Z,9.40
2019-04-26T23:55:26.438Z,9.40
2019-04-26T23:57:56.849Z,9.40
